sensor_id;sensor_type;location;lat;lon;timestamp;pressure;altitude;pressure_sealevel;temperature
14851;BMP180;7517;48.400;11.770;2023-06-26T00:02:03;96545.00;;;20.70
14851;BMP180;7517;48.400;11.770;2023-06-26T00:04:32;96545.00;;;20.70
14851;BMP180;7517;48.400;11.770;2023-06-26T00:07:01;96550.00;;;20.70
14851;BMP180;7517;48.400;11.770;2023-06-26T00:09:30;96546.00;;;20.60
14851;BMP180;7517;48.400;11.770;2023-06-26T00:11:57;96548.00;;;20.60
14851;BMP180;7517;48.400;11.770;2023-06-26T00:14:25;96550.00;;;20.50
14851;BMP180;7517;48.400;11.770;2023-06-26T00:16:52;96546.00;;;20.50
14851;BMP180;7517;48.400;11.770;2023-06-26T00:19:19;96541.00;;;20.40
14851;BMP180;7517;48.400;11.770;2023-06-26T00:21:46;96545.00;;;20.40
14851;BMP180;7517;48.400;11.770;2023-06-26T00:24:14;96540.00;;;20.30
14851;BMP180;7517;48.400;11.770;2023-06-26T00:26:43;96540.00;;;20.30
14851;BMP180;7517;48.400;11.770;2023-06-26T00:29:10;96549.00;;;20.30
14851;BMP180;7517;48.400;11.770;2023-06-26T00:31:37;96545.00;;;20.30
14851;BMP180;7517;48.400;11.770;2023-06-26T00:34:06;96541.00;;;20.30
14851;BMP180;7517;48.400;11.770;2023-06-26T00:36:33;96541.00;;;20.30
14851;BMP180;7517;48.400;11.770;2023-06-26T00:39:00;96546.00;;;20.30
14851;BMP180;7517;48.400;11.770;2023-06-26T00:41:29;96543.00;;;20.20
14851;BMP180;7517;48.400;11.770;2023-06-26T00:43:57;96542.00;;;20.20
14851;BMP180;7517;48.400;11.770;2023-06-26T00:46:24;96543.00;;;20.20
14851;BMP180;7517;48.400;11.770;2023-06-26T00:48:53;96541.00;;;20.20
14851;BMP180;7517;48.400;11.770;2023-06-26T00:51:22;96541.00;;;20.10
14851;BMP180;7517;48.400;11.770;2023-06-26T00:53:49;96540.00;;;20.10
14851;BMP180;7517;48.400;11.770;2023-06-26T00:56:18;96544.00;;;20.10
14851;BMP180;7517;48.400;11.770;2023-06-26T00:58:46;96541.00;;;20.10
14851;BMP180;7517;48.400;11.770;2023-06-26T01:01:15;96542.00;;;20.00
14851;BMP180;7517;48.400;11.770;2023-06-26T01:03:44;96544.00;;;20.00
14851;BMP180;7517;48.400;11.770;2023-06-26T01:06:14;96542.00;;;20.00
14851;BMP180;7517;48.400;11.770;2023-06-26T01:08:42;96542.00;;;20.00
14851;BMP180;7517;48.400;11.770;2023-06-26T01:11:10;96539.00;;;20.00
14851;BMP180;7517;48.400;11.770;2023-06-26T01:13:39;96539.00;;;19.90
14851;BMP180;7517;48.400;11.770;2023-06-26T01:16:09;96538.00;;;19.90
14851;BMP180;7517;48.400;11.770;2023-06-26T01:18:40;96539.00;;;19.90
14851;BMP180;7517;48.400;11.770;2023-06-26T01:21:09;96541.00;;;19.90
14851;BMP180;7517;48.400;11.770;2023-06-26T01:23:49;96541.00;;;19.80
14851;BMP180;7517;48.400;11.770;2023-06-26T01:26:23;96539.00;;;19.80
14851;BMP180;7517;48.400;11.770;2023-06-26T01:28:52;96536.00;;;19.80
14851;BMP180;7517;48.400;11.770;2023-06-26T01:31:20;96529.00;;;19.80
14851;BMP180;7517;48.400;11.770;2023-06-26T01:33:47;96534.00;;;19.70
14851;BMP180;7517;48.400;11.770;2023-06-26T01:36:16;96529.00;;;19.70
14851;BMP180;7517;48.400;11.770;2023-06-26T01:38:44;96537.00;;;19.70
14851;BMP180;7517;48.400;11.770;2023-06-26T01:41:11;96536.00;;;19.70
14851;BMP180;7517;48.400;11.770;2023-06-26T01:44:01;96539.00;;;19.70
14851;BMP180;7517;48.400;11.770;2023-06-26T01:46:38;96533.00;;;19.60
14851;BMP180;7517;48.400;11.770;2023-06-26T01:49:12;96534.00;;;19.60
14851;BMP180;7517;48.400;11.770;2023-06-26T01:51:49;96535.00;;;19.60
14851;BMP180;7517;48.400;11.770;2023-06-26T01:54:21;96528.00;;;19.60
14851;BMP180;7517;48.400;11.770;2023-06-26T01:56:52;96533.00;;;19.60
14851;BMP180;7517;48.400;11.770;2023-06-26T01:59:23;96534.00;;;19.60
14851;BMP180;7517;48.400;11.770;2023-06-26T02:01:52;96535.00;;;19.50
14851;BMP180;7517;48.400;11.770;2023-06-26T02:04:22;96532.00;;;19.50
14851;BMP180;7517;48.400;11.770;2023-06-26T02:06:49;96527.00;;;19.50
14851;BMP180;7517;48.400;11.770;2023-06-26T02:09:16;96535.00;;;19.50
14851;BMP180;7517;48.400;11.770;2023-06-26T02:11:43;96532.00;;;19.50
14851;BMP180;7517;48.400;11.770;2023-06-26T02:14:10;96535.00;;;19.40
14851;BMP180;7517;48.400;11.770;2023-06-26T02:16:39;96534.00;;;19.40
14851;BMP180;7517;48.400;11.770;2023-06-26T02:19:06;96537.00;;;19.40
14851;BMP180;7517;48.400;11.770;2023-06-26T02:21:33;96534.00;;;19.40
14851;BMP180;7517;48.400;11.770;2023-06-26T02:24:01;96531.00;;;19.30
14851;BMP180;7517;48.400;11.770;2023-06-26T02:26:28;96536.00;;;19.30
14851;BMP180;7517;48.400;11.770;2023-06-26T02:28:56;96540.00;;;19.30
14851;BMP180;7517;48.400;11.770;2023-06-26T02:31:23;96535.00;;;19.30
14851;BMP180;7517;48.400;11.770;2023-06-26T02:33:52;96536.00;;;19.20
14851;BMP180;7517;48.400;11.770;2023-06-26T02:36:19;96542.00;;;19.20
14851;BMP180;7517;48.400;11.770;2023-06-26T02:38:47;96546.00;;;19.20
14851;BMP180;7517;48.400;11.770;2023-06-26T02:41:15;96538.00;;;19.10
14851;BMP180;7517;48.400;11.770;2023-06-26T02:43:42;96541.00;;;19.10
14851;BMP180;7517;48.400;11.770;2023-06-26T02:46:09;96535.00;;;19.10
14851;BMP180;7517;48.400;11.770;2023-06-26T02:48:36;96532.00;;;19.10
14851;BMP180;7517;48.400;11.770;2023-06-26T02:51:05;96539.00;;;19.00
14851;BMP180;7517;48.400;11.770;2023-06-26T02:53:32;96533.00;;;19.00
14851;BMP180;7517;48.400;11.770;2023-06-26T02:56:00;96534.00;;;19.00
14851;BMP180;7517;48.400;11.770;2023-06-26T02:58:28;96529.00;;;18.90
14851;BMP180;7517;48.400;11.770;2023-06-26T03:00:55;96533.00;;;18.90
14851;BMP180;7517;48.400;11.770;2023-06-26T03:03:22;96534.00;;;18.90
14851;BMP180;7517;48.400;11.770;2023-06-26T03:05:50;96527.00;;;18.90
14851;BMP180;7517;48.400;11.770;2023-06-26T03:08:18;96518.00;;;18.90
14851;BMP180;7517;48.400;11.770;2023-06-26T03:10:45;96522.00;;;18.90
14851;BMP180;7517;48.400;11.770;2023-06-26T03:13:12;96517.00;;;18.90
14851;BMP180;7517;48.400;11.770;2023-06-26T03:15:40;96529.00;;;18.80
14851;BMP180;7517;48.400;11.770;2023-06-26T03:18:07;96521.00;;;18.80
14851;BMP180;7517;48.400;11.770;2023-06-26T03:20:35;96527.00;;;18.80
14851;BMP180;7517;48.400;11.770;2023-06-26T03:23:02;96530.00;;;18.80
14851;BMP180;7517;48.400;11.770;2023-06-26T03:25:31;96528.00;;;18.80
14851;BMP180;7517;48.400;11.770;2023-06-26T03:27:58;96532.00;;;18.80
14851;BMP180;7517;48.400;11.770;2023-06-26T03:30:25;96533.00;;;18.80
14851;BMP180;7517;48.400;11.770;2023-06-26T03:32:54;96531.00;;;18.70
14851;BMP180;7517;48.400;11.770;2023-06-26T03:35:22;96535.00;;;18.70
14851;BMP180;7517;48.400;11.770;2023-06-26T03:37:49;96534.00;;;18.70
14851;BMP180;7517;48.400;11.770;2023-06-26T03:40:16;96540.00;;;18.60
14851;BMP180;7517;48.400;11.770;2023-06-26T03:42:44;96542.00;;;18.60
14851;BMP180;7517;48.400;11.770;2023-06-26T03:45:12;96538.00;;;18.60
14851;BMP180;7517;48.400;11.770;2023-06-26T03:47:39;96536.00;;;18.50
14851;BMP180;7517;48.400;11.770;2023-06-26T03:50:07;96531.00;;;18.50
14851;BMP180;7517;48.400;11.770;2023-06-26T03:52:34;96538.00;;;18.50
14851;BMP180;7517;48.400;11.770;2023-06-26T03:55:01;96532.00;;;18.40
14851;BMP180;7517;48.400;11.770;2023-06-26T03:57:29;96534.00;;;18.40
14851;BMP180;7517;48.400;11.770;2023-06-26T03:59:58;96537.00;;;18.40
14851;BMP180;7517;48.400;11.770;2023-06-26T04:02:27;96526.00;;;18.40
14851;BMP180;7517;48.400;11.770;2023-06-26T04:04:54;96532.00;;;18.40
14851;BMP180;7517;48.400;11.770;2023-06-26T04:07:21;96527.00;;;18.40
14851;BMP180;7517;48.400;11.770;2023-06-26T04:09:49;96535.00;;;18.40
14851;BMP180;7517;48.400;11.770;2023-06-26T04:12:16;96539.00;;;18.40
14851;BMP180;7517;48.400;11.770;2023-06-26T04:14:43;96541.00;;;18.40
14851;BMP180;7517;48.400;11.770;2023-06-26T04:17:11;96540.00;;;18.40
14851;BMP180;7517;48.400;11.770;2023-06-26T04:19:39;96532.00;;;18.40
14851;BMP180;7517;48.400;11.770;2023-06-26T04:22:06;96536.00;;;18.40
14851;BMP180;7517;48.400;11.770;2023-06-26T04:24:33;96531.00;;;18.40
14851;BMP180;7517;48.400;11.770;2023-06-26T04:27:00;96532.00;;;18.50
14851;BMP180;7517;48.400;11.770;2023-06-26T04:29:28;96533.00;;;18.50
14851;BMP180;7517;48.400;11.770;2023-06-26T04:31:55;96528.00;;;18.50
14851;BMP180;7517;48.400;11.770;2023-06-26T04:34:25;96526.00;;;18.50
14851;BMP180;7517;48.400;11.770;2023-06-26T04:36:52;96529.00;;;18.60
14851;BMP180;7517;48.400;11.770;2023-06-26T04:39:19;96530.00;;;18.60
14851;BMP180;7517;48.400;11.770;2023-06-26T04:41:46;96532.00;;;18.70
14851;BMP180;7517;48.400;11.770;2023-06-26T04:44:13;96528.00;;;18.70
14851;BMP180;7517;48.400;11.770;2023-06-26T04:46:41;96532.00;;;18.70
14851;BMP180;7517;48.400;11.770;2023-06-26T04:49:08;96541.00;;;18.80
14851;BMP180;7517;48.400;11.770;2023-06-26T04:51:37;96533.00;;;18.80
14851;BMP180;7517;48.400;11.770;2023-06-26T04:54:06;96525.00;;;18.90
14851;BMP180;7517;48.400;11.770;2023-06-26T04:56:34;96529.00;;;19.00
14851;BMP180;7517;48.400;11.770;2023-06-26T04:59:02;96526.00;;;19.00
14851;BMP180;7517;48.400;11.770;2023-06-26T05:01:30;96534.00;;;19.10
14851;BMP180;7517;48.400;11.770;2023-06-26T05:03:58;96540.00;;;19.10
14851;BMP180;7517;48.400;11.770;2023-06-26T05:06:25;96535.00;;;19.20
14851;BMP180;7517;48.400;11.770;2023-06-26T05:08:54;96520.00;;;19.30
14851;BMP180;7517;48.400;11.770;2023-06-26T05:11:21;96534.00;;;19.30
14851;BMP180;7517;48.400;11.770;2023-06-26T05:13:48;96531.00;;;19.40
14851;BMP180;7517;48.400;11.770;2023-06-26T05:16:16;96528.00;;;19.50
14851;BMP180;7517;48.400;11.770;2023-06-26T05:18:43;96525.00;;;19.60
14851;BMP180;7517;48.400;11.770;2023-06-26T05:21:11;96530.00;;;19.60
14851;BMP180;7517;48.400;11.770;2023-06-26T05:23:39;96528.00;;;19.70
14851;BMP180;7517;48.400;11.770;2023-06-26T05:26:09;96527.00;;;19.80
14851;BMP180;7517;48.400;11.770;2023-06-26T05:28:37;96531.00;;;19.90
14851;BMP180;7517;48.400;11.770;2023-06-26T05:31:05;96531.00;;;19.90
14851;BMP180;7517;48.400;11.770;2023-06-26T05:33:35;96527.00;;;20.00
14851;BMP180;7517;48.400;11.770;2023-06-26T05:36:05;96524.00;;;20.10
14851;BMP180;7517;48.400;11.770;2023-06-26T05:38:35;96525.00;;;20.20
14851;BMP180;7517;48.400;11.770;2023-06-26T05:41:03;96533.00;;;20.30
14851;BMP180;7517;48.400;11.770;2023-06-26T05:43:31;96533.00;;;20.40
14851;BMP180;7517;48.400;11.770;2023-06-26T05:45:58;96538.00;;;20.40
14851;BMP180;7517;48.400;11.770;2023-06-26T05:48:26;96530.00;;;20.50
14851;BMP180;7517;48.400;11.770;2023-06-26T05:50:55;96531.00;;;20.60
14851;BMP180;7517;48.400;11.770;2023-06-26T05:53:23;96529.00;;;20.70
14851;BMP180;7517;48.400;11.770;2023-06-26T05:55:52;96534.00;;;20.80
14851;BMP180;7517;48.400;11.770;2023-06-26T05:58:21;96536.00;;;20.90
14851;BMP180;7517;48.400;11.770;2023-06-26T06:00:52;96534.00;;;21.00
14851;BMP180;7517;48.400;11.770;2023-06-26T06:03:19;96539.00;;;21.10
14851;BMP180;7517;48.400;11.770;2023-06-26T06:05:46;96540.00;;;21.20
14851;BMP180;7517;48.400;11.770;2023-06-26T06:08:13;96534.00;;;21.30
14851;BMP180;7517;48.400;11.770;2023-06-26T06:10:41;96535.00;;;21.40
14851;BMP180;7517;48.400;11.770;2023-06-26T06:13:08;96536.00;;;21.50
14851;BMP180;7517;48.400;11.770;2023-06-26T06:15:35;96543.00;;;21.50
14851;BMP180;7517;48.400;11.770;2023-06-26T06:18:04;96543.00;;;21.60
14851;BMP180;7517;48.400;11.770;2023-06-26T06:20:31;96540.00;;;21.70
14851;BMP180;7517;48.400;11.770;2023-06-26T06:22:59;96532.00;;;21.80
14851;BMP180;7517;48.400;11.770;2023-06-26T06:25:26;96535.00;;;21.90
14851;BMP180;7517;48.400;11.770;2023-06-26T06:27:54;96536.00;;;22.00
14851;BMP180;7517;48.400;11.770;2023-06-26T06:30:21;96530.00;;;22.10
14851;BMP180;7517;48.400;11.770;2023-06-26T06:32:49;96537.00;;;22.20
14851;BMP180;7517;48.400;11.770;2023-06-26T06:35:19;96523.00;;;22.30
14851;BMP180;7517;48.400;11.770;2023-06-26T06:37:46;96527.00;;;22.40
14851;BMP180;7517;48.400;11.770;2023-06-26T06:40:15;96540.00;;;22.50
14851;BMP180;7517;48.400;11.770;2023-06-26T06:42:42;96536.00;;;22.60
14851;BMP180;7517;48.400;11.770;2023-06-26T06:45:10;96537.00;;;22.70
14851;BMP180;7517;48.400;11.770;2023-06-26T06:47:37;96544.00;;;22.80
14851;BMP180;7517;48.400;11.770;2023-06-26T06:50:06;96537.00;;;22.90
14851;BMP180;7517;48.400;11.770;2023-06-26T06:52:37;96542.00;;;23.00
14851;BMP180;7517;48.400;11.770;2023-06-26T06:55:07;96543.00;;;23.10
14851;BMP180;7517;48.400;11.770;2023-06-26T06:57:37;96543.00;;;23.30
14851;BMP180;7517;48.400;11.770;2023-06-26T07:00:07;96537.00;;;23.40
14851;BMP180;7517;48.400;11.770;2023-06-26T07:02:35;96540.00;;;23.50
14851;BMP180;7517;48.400;11.770;2023-06-26T07:05:03;96534.00;;;23.60
14851;BMP180;7517;48.400;11.770;2023-06-26T07:07:32;96539.00;;;23.70
14851;BMP180;7517;48.400;11.770;2023-06-26T07:10:04;96540.00;;;23.90
14851;BMP180;7517;48.400;11.770;2023-06-26T07:12:31;96537.00;;;24.10
14851;BMP180;7517;48.400;11.770;2023-06-26T07:15:00;96533.00;;;24.30
14851;BMP180;7517;48.400;11.770;2023-06-26T07:17:28;96541.00;;;24.40
14851;BMP180;7517;48.400;11.770;2023-06-26T07:19:55;96541.00;;;24.60
14851;BMP180;7517;48.400;11.770;2023-06-26T07:22:23;96548.00;;;24.80
14851;BMP180;7517;48.400;11.770;2023-06-26T07:24:50;96542.00;;;25.00
14851;BMP180;7517;48.400;11.770;2023-06-26T07:27:19;96539.00;;;25.10
14851;BMP180;7517;48.400;11.770;2023-06-26T07:29:48;96540.00;;;25.30
14851;BMP180;7517;48.400;11.770;2023-06-26T07:32:15;96543.00;;;25.40
14851;BMP180;7517;48.400;11.770;2023-06-26T07:34:42;96537.00;;;25.60
14851;BMP180;7517;48.400;11.770;2023-06-26T07:37:10;96538.00;;;25.70
14851;BMP180;7517;48.400;11.770;2023-06-26T07:39:37;96544.00;;;25.90
14851;BMP180;7517;48.400;11.770;2023-06-26T07:42:04;96545.00;;;26.00
14851;BMP180;7517;48.400;11.770;2023-06-26T07:44:33;96539.00;;;26.20
14851;BMP180;7517;48.400;11.770;2023-06-26T07:47:00;96540.00;;;26.40
14851;BMP180;7517;48.400;11.770;2023-06-26T07:49:27;96535.00;;;26.50
14851;BMP180;7517;48.400;11.770;2023-06-26T07:51:55;96547.00;;;26.70
14851;BMP180;7517;48.400;11.770;2023-06-26T07:54:22;96546.00;;;26.90
14851;BMP180;7517;48.400;11.770;2023-06-26T07:56:54;96547.00;;;27.10
14851;BMP180;7517;48.400;11.770;2023-06-26T07:59:23;96544.00;;;27.20
14851;BMP180;7517;48.400;11.770;2023-06-26T08:01:54;96542.00;;;27.40
14851;BMP180;7517;48.400;11.770;2023-06-26T08:04:24;96545.00;;;27.60
14851;BMP180;7517;48.400;11.770;2023-06-26T08:06:56;96547.00;;;27.70
14851;BMP180;7517;48.400;11.770;2023-06-26T08:09:26;96536.00;;;27.80
14851;BMP180;7517;48.400;11.770;2023-06-26T08:11:55;96543.00;;;28.00
14851;BMP180;7517;48.400;11.770;2023-06-26T08:14:22;96537.00;;;28.10
14851;BMP180;7517;48.400;11.770;2023-06-26T08:16:49;96538.00;;;28.30
14851;BMP180;7517;48.400;11.770;2023-06-26T08:19:18;96535.00;;;28.50
14851;BMP180;7517;48.400;11.770;2023-06-26T08:21:47;96538.00;;;28.60
14851;BMP180;7517;48.400;11.770;2023-06-26T08:24:15;96541.00;;;28.80
14851;BMP180;7517;48.400;11.770;2023-06-26T08:26:45;96533.00;;;29.00
14851;BMP180;7517;48.400;11.770;2023-06-26T08:29:13;96540.00;;;29.20
14851;BMP180;7517;48.400;11.770;2023-06-26T08:31:42;96549.00;;;29.30
14851;BMP180;7517;48.400;11.770;2023-06-26T08:34:10;96543.00;;;29.50
14851;BMP180;7517;48.400;11.770;2023-06-26T08:36:38;96537.00;;;29.70
14851;BMP180;7517;48.400;11.770;2023-06-26T08:39:06;96540.00;;;29.80
14851;BMP180;7517;48.400;11.770;2023-06-26T08:41:34;96536.00;;;30.00
14851;BMP180;7517;48.400;11.770;2023-06-26T08:44:03;96541.00;;;30.20
14851;BMP180;7517;48.400;11.770;2023-06-26T08:46:32;96532.00;;;30.40
14851;BMP180;7517;48.400;11.770;2023-06-26T08:49:07;96540.00;;;30.50
14851;BMP180;7517;48.400;11.770;2023-06-26T08:51:48;96539.00;;;30.70
14851;BMP180;7517;48.400;11.770;2023-06-26T08:54:21;96540.00;;;30.90
14851;BMP180;7517;48.400;11.770;2023-06-26T08:56:49;96533.00;;;31.00
14851;BMP180;7517;48.400;11.770;2023-06-26T08:59:21;96533.00;;;31.20
14851;BMP180;7517;48.400;11.770;2023-06-26T09:01:50;96531.00;;;31.40
14851;BMP180;7517;48.400;11.770;2023-06-26T09:04:18;96534.00;;;31.50
14851;BMP180;7517;48.400;11.770;2023-06-26T09:06:49;96533.00;;;31.70
14851;BMP180;7517;48.400;11.770;2023-06-26T09:09:16;96535.00;;;31.80
14851;BMP180;7517;48.400;11.770;2023-06-26T09:11:44;96534.00;;;32.00
14851;BMP180;7517;48.400;11.770;2023-06-26T09:14:11;96520.00;;;32.10
14851;BMP180;7517;48.400;11.770;2023-06-26T09:16:42;96536.00;;;32.30
14851;BMP180;7517;48.400;11.770;2023-06-26T09:19:10;96533.00;;;32.50
14851;BMP180;7517;48.400;11.770;2023-06-26T09:21:39;96528.00;;;32.60
14851;BMP180;7517;48.400;11.770;2023-06-26T09:24:09;96523.00;;;32.80
14851;BMP180;7517;48.400;11.770;2023-06-26T09:26:38;96525.00;;;32.90
14851;BMP180;7517;48.400;11.770;2023-06-26T09:29:08;96519.00;;;33.00
14851;BMP180;7517;48.400;11.770;2023-06-26T09:31:37;96523.00;;;33.10
14851;BMP180;7517;48.400;11.770;2023-06-26T09:34:05;96515.00;;;33.30
14851;BMP180;7517;48.400;11.770;2023-06-26T09:36:33;96521.00;;;33.40
14851;BMP180;7517;48.400;11.770;2023-06-26T09:39:03;96523.00;;;33.60
14851;BMP180;7517;48.400;11.770;2023-06-26T09:41:35;96523.00;;;33.70
14851;BMP180;7517;48.400;11.770;2023-06-26T09:44:05;96518.00;;;33.90
14851;BMP180;7517;48.400;11.770;2023-06-26T09:46:33;96514.00;;;34.00
14851;BMP180;7517;48.400;11.770;2023-06-26T09:49:06;96518.00;;;34.20
14851;BMP180;7517;48.400;11.770;2023-06-26T09:51:35;96511.00;;;34.40
14851;BMP180;7517;48.400;11.770;2023-06-26T09:54:05;96505.00;;;34.50
14851;BMP180;7517;48.400;11.770;2023-06-26T09:56:36;96514.00;;;34.70
14851;BMP180;7517;48.400;11.770;2023-06-26T09:59:05;96508.00;;;34.90
14851;BMP180;7517;48.400;11.770;2023-06-26T10:01:33;96507.00;;;35.10
14851;BMP180;7517;48.400;11.770;2023-06-26T10:04:01;96514.00;;;35.30
14851;BMP180;7517;48.400;11.770;2023-06-26T10:06:35;96509.00;;;35.50
14851;BMP180;7517;48.400;11.770;2023-06-26T10:09:04;96510.00;;;35.70
14851;BMP180;7517;48.400;11.770;2023-06-26T10:11:39;96506.00;;;35.90
14851;BMP180;7517;48.400;11.770;2023-06-26T10:14:11;96510.00;;;36.10
14851;BMP180;7517;48.400;11.770;2023-06-26T10:16:41;96511.00;;;36.30
14851;BMP180;7517;48.400;11.770;2023-06-26T10:19:12;96503.00;;;36.40
14851;BMP180;7517;48.400;11.770;2023-06-26T10:21:41;96498.00;;;36.60
14851;BMP180;7517;48.400;11.770;2023-06-26T10:24:11;96501.00;;;36.70
14851;BMP180;7517;48.400;11.770;2023-06-26T10:26:45;96500.00;;;36.80
14851;BMP180;7517;48.400;11.770;2023-06-26T10:29:14;96496.00;;;36.90
14851;BMP180;7517;48.400;11.770;2023-06-26T10:31:49;96499.00;;;37.10
14851;BMP180;7517;48.400;11.770;2023-06-26T10:34:17;96501.00;;;37.20
14851;BMP180;7517;48.400;11.770;2023-06-26T10:36:44;96500.00;;;37.30
14851;BMP180;7517;48.400;11.770;2023-06-26T10:39:13;96499.00;;;37.30
14851;BMP180;7517;48.400;11.770;2023-06-26T10:41:42;96501.00;;;37.40
14851;BMP180;7517;48.400;11.770;2023-06-26T10:44:10;96496.00;;;37.50
14851;BMP180;7517;48.400;11.770;2023-06-26T10:46:51;96491.00;;;37.60
14851;BMP180;7517;48.400;11.770;2023-06-26T10:49:20;96487.00;;;37.70
14851;BMP180;7517;48.400;11.770;2023-06-26T10:51:50;96491.00;;;37.70
14851;BMP180;7517;48.400;11.770;2023-06-26T10:54:19;96491.00;;;37.70
14851;BMP180;7517;48.400;11.770;2023-06-26T10:56:50;96483.00;;;37.70
14851;BMP180;7517;48.400;11.770;2023-06-26T10:59:22;96477.00;;;37.70
14851;BMP180;7517;48.400;11.770;2023-06-26T11:01:55;96479.00;;;37.60
14851;BMP180;7517;48.400;11.770;2023-06-26T11:04:38;96478.00;;;37.40
14851;BMP180;7517;48.400;11.770;2023-06-26T11:07:18;96463.00;;;37.30
14851;BMP180;7517;48.400;11.770;2023-06-26T11:09:57;96470.00;;;37.10
14851;BMP180;7517;48.400;11.770;2023-06-26T11:12:38;96471.00;;;36.90
14851;BMP180;7517;48.400;11.770;2023-06-26T11:15:08;96473.00;;;36.70
14851;BMP180;7517;48.400;11.770;2023-06-26T11:17:37;96471.00;;;36.60
14851;BMP180;7517;48.400;11.770;2023-06-26T11:20:06;96464.00;;;36.40
14851;BMP180;7517;48.400;11.770;2023-06-26T11:22:36;96474.00;;;36.20
14851;BMP180;7517;48.400;11.770;2023-06-26T11:25:06;96470.00;;;36.00
14851;BMP180;7517;48.400;11.770;2023-06-26T11:27:40;96462.00;;;35.80
14851;BMP180;7517;48.400;11.770;2023-06-26T11:30:10;96466.00;;;35.70
14851;BMP180;7517;48.400;11.770;2023-06-26T11:32:40;96450.00;;;35.50
14851;BMP180;7517;48.400;11.770;2023-06-26T11:35:08;96457.00;;;35.40
14851;BMP180;7517;48.400;11.770;2023-06-26T11:37:35;96465.00;;;35.30
14851;BMP180;7517;48.400;11.770;2023-06-26T11:40:17;96462.00;;;35.10
14851;BMP180;7517;48.400;11.770;2023-06-26T11:42:46;96459.00;;;35.10
14851;BMP180;7517;48.400;11.770;2023-06-26T11:45:13;96457.00;;;35.00
14851;BMP180;7517;48.400;11.770;2023-06-26T11:47:41;96452.00;;;34.90
14851;BMP180;7517;48.400;11.770;2023-06-26T11:50:15;96446.00;;;34.80
14851;BMP180;7517;48.400;11.770;2023-06-26T11:52:43;96447.00;;;34.70
14851;BMP180;7517;48.400;11.770;2023-06-26T11:55:11;96443.00;;;34.70
14851;BMP180;7517;48.400;11.770;2023-06-26T11:57:38;96445.00;;;34.70
14851;BMP180;7517;48.400;11.770;2023-06-26T12:00:14;96424.00;;;34.70
14851;BMP180;7517;48.400;11.770;2023-06-26T12:02:42;96431.00;;;34.80
14851;BMP180;7517;48.400;11.770;2023-06-26T12:05:11;96432.00;;;34.80
14851;BMP180;7517;48.400;11.770;2023-06-26T12:07:38;96426.00;;;34.80
14851;BMP180;7517;48.400;11.770;2023-06-26T12:10:07;96429.00;;;34.80
14851;BMP180;7517;48.400;11.770;2023-06-26T12:12:36;96424.00;;;34.70
14851;BMP180;7517;48.400;11.770;2023-06-26T12:15:06;96424.00;;;34.70
14851;BMP180;7517;48.400;11.770;2023-06-26T12:17:39;96424.00;;;34.60
14851;BMP180;7517;48.400;11.770;2023-06-26T12:20:18;96426.00;;;34.60
14851;BMP180;7517;48.400;11.770;2023-06-26T12:22:49;96425.00;;;34.50
14851;BMP180;7517;48.400;11.770;2023-06-26T12:25:23;96433.00;;;34.50
14851;BMP180;7517;48.400;11.770;2023-06-26T12:27:50;96429.00;;;34.50
14851;BMP180;7517;48.400;11.770;2023-06-26T12:30:17;96425.00;;;34.40
14851;BMP180;7517;48.400;11.770;2023-06-26T12:32:46;96432.00;;;34.40
14851;BMP180;7517;48.400;11.770;2023-06-26T12:35:13;96432.00;;;34.40
14851;BMP180;7517;48.400;11.770;2023-06-26T12:37:42;96429.00;;;34.30
14851;BMP180;7517;48.400;11.770;2023-06-26T12:40:17;96434.00;;;34.30
14851;BMP180;7517;48.400;11.770;2023-06-26T12:42:47;96425.00;;;34.30
14851;BMP180;7517;48.400;11.770;2023-06-26T12:45:15;96424.00;;;34.30
14851;BMP180;7517;48.400;11.770;2023-06-26T12:47:42;96421.00;;;34.30
14851;BMP180;7517;48.400;11.770;2023-06-26T12:50:12;96412.00;;;34.30
14851;BMP180;7517;48.400;11.770;2023-06-26T12:52:39;96416.00;;;34.30
14851;BMP180;7517;48.400;11.770;2023-06-26T12:55:08;96417.00;;;34.40
14851;BMP180;7517;48.400;11.770;2023-06-26T12:57:37;96420.00;;;34.40
14851;BMP180;7517;48.400;11.770;2023-06-26T13:00:06;96419.00;;;34.40
14851;BMP180;7517;48.400;11.770;2023-06-26T13:02:33;96403.00;;;34.50
14851;BMP180;7517;48.400;11.770;2023-06-26T13:05:00;96404.00;;;34.50
14851;BMP180;7517;48.400;11.770;2023-06-26T13:07:29;96410.00;;;34.50
14851;BMP180;7517;48.400;11.770;2023-06-26T13:09:56;96412.00;;;34.50
14851;BMP180;7517;48.400;11.770;2023-06-26T13:12:23;96404.00;;;34.50
14851;BMP180;7517;48.400;11.770;2023-06-26T13:14:50;96412.00;;;34.50
14851;BMP180;7517;48.400;11.770;2023-06-26T13:17:18;96401.00;;;34.60
14851;BMP180;7517;48.400;11.770;2023-06-26T13:19:45;96400.00;;;34.60
14851;BMP180;7517;48.400;11.770;2023-06-26T13:22:12;96408.00;;;34.60
14851;BMP180;7517;48.400;11.770;2023-06-26T13:24:41;96396.00;;;34.60
14851;BMP180;7517;48.400;11.770;2023-06-26T13:27:08;96399.00;;;34.60
14851;BMP180;7517;48.400;11.770;2023-06-26T13:29:35;96401.00;;;34.50
14851;BMP180;7517;48.400;11.770;2023-06-26T13:32:03;96391.00;;;34.50
14851;BMP180;7517;48.400;11.770;2023-06-26T13:34:30;96393.00;;;34.50
14851;BMP180;7517;48.400;11.770;2023-06-26T13:36:58;96397.00;;;34.50
14851;BMP180;7517;48.400;11.770;2023-06-26T13:39:26;96390.00;;;34.50
14851;BMP180;7517;48.400;11.770;2023-06-26T13:41:54;96397.00;;;34.50
14851;BMP180;7517;48.400;11.770;2023-06-26T13:44:23;96401.00;;;34.50
14851;BMP180;7517;48.400;11.770;2023-06-26T13:46:50;96385.00;;;34.50
14851;BMP180;7517;48.400;11.770;2023-06-26T13:49:19;96389.00;;;34.50
14851;BMP180;7517;48.400;11.770;2023-06-26T13:51:46;96387.00;;;34.50
14851;BMP180;7517;48.400;11.770;2023-06-26T13:54:14;96391.00;;;34.50
14851;BMP180;7517;48.400;11.770;2023-06-26T13:56:41;96400.00;;;34.50
14851;BMP180;7517;48.400;11.770;2023-06-26T13:59:09;96399.00;;;34.50
14851;BMP180;7517;48.400;11.770;2023-06-26T14:01:37;96395.00;;;34.50
14851;BMP180;7517;48.400;11.770;2023-06-26T14:04:05;96393.00;;;34.50
14851;BMP180;7517;48.400;11.770;2023-06-26T14:06:34;96389.00;;;34.50
14851;BMP180;7517;48.400;11.770;2023-06-26T14:09:02;96391.00;;;34.40
14851;BMP180;7517;48.400;11.770;2023-06-26T14:11:29;96382.00;;;34.40
14851;BMP180;7517;48.400;11.770;2023-06-26T14:13:58;96393.00;;;34.40
14851;BMP180;7517;48.400;11.770;2023-06-26T14:16:26;96384.00;;;34.40
14851;BMP180;7517;48.400;11.770;2023-06-26T14:18:54;96382.00;;;34.40